sensor_id;sensor_type;location;lat;lon;timestamp;P1;durP1;ratioP1;P2;durP2;ratioP2
26838;SDS011;40088;51.214;6.786;2023-04-06T00:02:59;6.90;;;5.20;;
26838;SDS011;40088;51.214;6.786;2023-04-06T00:12:59;7.40;;;5.20;;
26838;SDS011;40088;51.214;6.786;2023-04-06T00:22:59;6.82;;;5.30;;
26838;SDS011;40088;51.214;6.786;2023-04-06T00:33:00;8.05;;;5.82;;
26838;SDS011;40088;51.214;6.786;2023-04-06T00:43:00;7.22;;;5.50;;
26838;SDS011;40088;51.214;6.786;2023-04-06T00:53:01;7.85;;;5.47;;
26838;SDS011;40088;51.214;6.786;2023-04-06T01:03:01;7.33;;;5.57;;
26838;SDS011;40088;51.214;6.786;2023-04-06T01:13:03;7.40;;;5.78;;
26838;SDS011;40088;51.214;6.786;2023-04-06T01:23:03;8.07;;;5.38;;
26838;SDS011;40088;51.214;6.786;2023-04-06T01:33:04;7.35;;;5.75;;
26838;SDS011;40088;51.214;6.786;2023-04-06T01:43:04;6.90;;;5.82;;
26838;SDS011;40088;51.214;6.786;2023-04-06T01:53:04;8.10;;;6.10;;
26838;SDS011;40088;51.214;6.786;2023-04-06T02:03:05;7.90;;;5.85;;
26838;SDS011;40088;51.214;6.786;2023-04-06T02:13:06;9.00;;;5.95;;
26838;SDS011;40088;51.214;6.786;2023-04-06T02:23:06;9.35;;;6.32;;
26838;SDS011;40088;51.214;6.786;2023-04-06T02:33:07;10.37;;;6.63;;
26838;SDS011;40088;51.214;6.786;2023-04-06T02:43:07;7.90;;;5.93;;
26838;SDS011;40088;51.214;6.786;2023-04-06T02:53:07;7.20;;;6.00;;
26838;SDS011;40088;51.214;6.786;2023-04-06T03:03:07;8.27;;;6.25;;
26838;SDS011;40088;51.214;6.786;2023-04-06T03:13:08;8.13;;;5.82;;
26838;SDS011;40088;51.214;6.786;2023-04-06T03:23:08;7.60;;;6.05;;
26838;SDS011;40088;51.214;6.786;2023-04-06T03:33:08;7.72;;;5.97;;
26838;SDS011;40088;51.214;6.786;2023-04-06T03:43:09;7.40;;;5.90;;
26838;SDS011;40088;51.214;6.786;2023-04-06T03:53:09;8.77;;;5.65;;
26838;SDS011;40088;51.214;6.786;2023-04-06T04:03:10;7.60;;;5.88;;
26838;SDS011;40088;51.214;6.786;2023-04-06T04:13:10;7.55;;;5.82;;
26838;SDS011;40088;51.214;6.786;2023-04-06T04:23:10;8.30;;;5.43;;
26838;SDS011;40088;51.214;6.786;2023-04-06T04:33:10;8.27;;;5.80;;
26838;SDS011;40088;51.214;6.786;2023-04-06T04:43:11;7.38;;;5.90;;
26838;SDS011;40088;51.214;6.786;2023-04-06T04:53:11;8.43;;;5.35;;
26838;SDS011;40088;51.214;6.786;2023-04-06T05:03:14;7.75;;;5.45;;
26838;SDS011;40088;51.214;6.786;2023-04-06T05:13:20;8.50;;;5.60;;
26838;SDS011;40088;51.214;6.786;2023-04-06T05:23:20;8.43;;;5.20;;
26838;SDS011;40088;51.214;6.786;2023-04-06T05:33:21;8.05;;;5.45;;
26838;SDS011;40088;51.214;6.786;2023-04-06T05:43:21;6.38;;;5.15;;
26838;SDS011;40088;51.214;6.786;2023-04-06T05:53:21;7.05;;;5.22;;
26838;SDS011;40088;51.214;6.786;2023-04-06T06:03:21;6.45;;;5.15;;
26838;SDS011;40088;51.214;6.786;2023-04-06T06:13:23;7.60;;;5.13;;
26838;SDS011;40088;51.214;6.786;2023-04-06T06:23:23;7.00;;;5.28;;
26838;SDS011;40088;51.214;6.786;2023-04-06T06:33:24;8.07;;;5.65;;
26838;SDS011;40088;51.214;6.786;2023-04-06T06:43:26;5.50;;;4.93;;
26838;SDS011;40088;51.214;6.786;2023-04-06T06:53:26;7.15;;;5.28;;
26838;SDS011;40088;51.214;6.786;2023-04-06T07:03:26;6.13;;;5.00;;
26838;SDS011;40088;51.214;6.786;2023-04-06T07:13:26;6.97;;;4.97;;
26838;SDS011;40088;51.214;6.786;2023-04-06T07:23:27;5.70;;;4.47;;
26838;SDS011;40088;51.214;6.786;2023-04-06T07:33:27;5.93;;;4.85;;
26838;SDS011;40088;51.214;6.786;2023-04-06T07:43:29;5.10;;;4.40;;
26838;SDS011;40088;51.214;6.786;2023-04-06T07:53:30;5.47;;;4.22;;
26838;SDS011;40088;51.214;6.786;2023-04-06T08:03:33;5.53;;;4.57;;
26838;SDS011;40088;51.214;6.786;2023-04-06T08:13:34;6.77;;;5.00;;
26838;SDS011;40088;51.214;6.786;2023-04-06T08:23:35;6.20;;;4.75;;
26838;SDS011;40088;51.214;6.786;2023-04-06T08:33:35;5.65;;;4.15;;
26838;SDS011;40088;51.214;6.786;2023-04-06T08:43:43;6.68;;;4.50;;
26838;SDS011;40088;51.214;6.786;2023-04-06T08:53:46;6.47;;;4.80;;
26838;SDS011;40088;51.214;6.786;2023-04-06T09:03:48;6.78;;;5.68;;
26838;SDS011;40088;51.214;6.786;2023-04-06T09:13:51;6.70;;;5.40;;
26838;SDS011;40088;51.214;6.786;2023-04-06T09:23:59;6.25;;;5.07;;
26838;SDS011;40088;51.214;6.786;2023-04-06T09:34:00;6.63;;;5.25;;
26838;SDS011;40088;51.214;6.786;2023-04-06T09:44:05;5.85;;;4.90;;
26838;SDS011;40088;51.214;6.786;2023-04-06T09:54:07;7.20;;;5.80;;
26838;SDS011;40088;51.214;6.786;2023-04-06T10:04:13;6.88;;;5.47;;
26838;SDS011;40088;51.214;6.786;2023-04-06T10:14:24;7.60;;;5.38;;
26838;SDS011;40088;51.214;6.786;2023-04-06T10:24:24;8.95;;;5.15;;
26838;SDS011;40088;51.214;6.786;2023-04-06T10:34:33;8.30;;;5.72;;
26838;SDS011;40088;51.214;6.786;2023-04-06T10:44:41;5.97;;;5.32;;
26838;SDS011;40088;51.214;6.786;2023-04-06T10:54:44;7.28;;;5.82;;
26838;SDS011;40088;51.214;6.786;2023-04-06T11:04:53;6.55;;;5.30;;
26838;SDS011;40088;51.214;6.786;2023-04-06T11:14:58;8.85;;;5.38;;
26838;SDS011;40088;51.214;6.786;2023-04-06T11:25:04;9.73;;;5.40;;
26838;SDS011;40088;51.214;6.786;2023-04-06T11:35:06;15.00;;;6.13;;
26838;SDS011;40088;51.214;6.786;2023-04-06T11:45:07;20.30;;;6.07;;
26838;SDS011;40088;51.214;6.786;2023-04-06T11:55:15;17.38;;;6.60;;
26838;SDS011;40088;51.214;6.786;2023-04-06T12:05:17;17.35;;;6.72;;
26838;SDS011;40088;51.214;6.786;2023-04-06T12:15:18;17.15;;;6.93;;
26838;SDS011;40088;51.214;6.786;2023-04-06T12:25:18;18.83;;;7.00;;
26838;SDS011;40088;51.214;6.786;2023-04-06T12:35:18;18.30;;;7.03;;
26838;SDS011;40088;51.214;6.786;2023-04-06T12:45:18;22.83;;;6.93;;
26838;SDS011;40088;51.214;6.786;2023-04-06T12:55:19;25.05;;;7.25;;
26838;SDS011;40088;51.214;6.786;2023-04-06T13:05:20;22.70;;;7.25;;
26838;SDS011;40088;51.214;6.786;2023-04-06T13:15:20;20.55;;;6.72;;
26838;SDS011;40088;51.214;6.786;2023-04-06T13:25:21;16.55;;;6.22;;
26838;SDS011;40088;51.214;6.786;2023-04-06T13:35:21;15.23;;;6.53;;
26838;SDS011;40088;51.214;6.786;2023-04-06T13:45:21;17.38;;;6.18;;
26838;SDS011;40088;51.214;6.786;2023-04-06T13:55:22;16.35;;;6.70;;
26838;SDS011;40088;51.214;6.786;2023-04-06T14:05:24;17.92;;;6.10;;
26838;SDS011;40088;51.214;6.786;2023-04-06T14:15:26;14.95;;;5.32;;
26838;SDS011;40088;51.214;6.786;2023-04-06T14:25:27;18.00;;;5.28;;
26838;SDS011;40088;51.214;6.786;2023-04-06T14:35:31;14.60;;;5.43;;
26838;SDS011;40088;51.214;6.786;2023-04-06T14:45:33;18.60;;;5.45;;
26838;SDS011;40088;51.214;6.786;2023-04-06T14:55:38;21.25;;;5.30;;
26838;SDS011;40088;51.214;6.786;2023-04-06T15:05:40;12.18;;;5.78;;
26838;SDS011;40088;51.214;6.786;2023-04-06T15:15:42;12.77;;;5.18;;
26838;SDS011;40088;51.214;6.786;2023-04-06T15:25:42;13.67;;;4.73;;
26838;SDS011;40088;51.214;6.786;2023-04-06T15:35:43;14.27;;;4.57;;
26838;SDS011;40088;51.214;6.786;2023-04-06T15:45:43;15.40;;;4.53;;
26838;SDS011;40088;51.214;6.786;2023-04-06T15:55:43;10.95;;;4.30;;
26838;SDS011;40088;51.214;6.786;2023-04-06T16:05:43;10.18;;;4.30;;
26838;SDS011;40088;51.214;6.786;2023-04-06T16:15:48;13.90;;;5.25;;
26838;SDS011;40088;51.214;6.786;2023-04-06T16:25:49;9.98;;;4.38;;
26838;SDS011;40088;51.214;6.786;2023-04-06T16:35:50;7.82;;;4.15;;
26838;SDS011;40088;51.214;6.786;2023-04-06T16:45:50;9.07;;;4.00;;
26838;SDS011;40088;51.214;6.786;2023-04-06T16:55:51;6.72;;;4.00;;
26838;SDS011;40088;51.214;6.786;2023-04-06T17:05:51;7.22;;;3.83;;
26838;SDS011;40088;51.214;6.786;2023-04-06T17:15:51;8.50;;;4.07;;
26838;SDS011;40088;51.214;6.786;2023-04-06T17:25:52;8.68;;;4.28;;
26838;SDS011;40088;51.214;6.786;2023-04-06T17:35:54;6.55;;;3.38;;
26838;SDS011;40088;51.214;6.786;2023-04-06T17:45:55;8.23;;;4.00;;
26838;SDS011;40088;51.214;6.786;2023-04-06T17:55:55;7.13;;;3.85;;
26838;SDS011;40088;51.214;6.786;2023-04-06T18:05:55;6.75;;;3.85;;
26838;SDS011;40088;51.214;6.786;2023-04-06T18:15:59;7.75;;;3.67;;
26838;SDS011;40088;51.214;6.786;2023-04-06T18:36:00;11.43;;;6.75;;
26838;SDS011;40088;51.214;6.786;2023-04-06T18:46:00;8.75;;;5.28;;
26838;SDS011;40088;51.214;6.786;2023-04-06T18:56:01;5.70;;;4.22;;
26838;SDS011;40088;51.214;6.786;2023-04-06T19:06:05;6.80;;;4.22;;
26838;SDS011;40088;51.214;6.786;2023-04-06T19:16:08;5.80;;;4.70;;
26838;SDS011;40088;51.214;6.786;2023-04-06T19:26:12;6.83;;;3.47;;
26838;SDS011;40088;51.214;6.786;2023-04-06T19:36:14;9.07;;;4.60;;
26838;SDS011;40088;51.214;6.786;2023-04-06T19:46:14;6.53;;;4.10;;
26838;SDS011;40088;51.214;6.786;2023-04-06T19:56:15;5.63;;;4.45;;
26838;SDS011;40088;51.214;6.786;2023-04-06T20:06:15;4.82;;;3.83;;
26838;SDS011;40088;51.214;6.786;2023-04-06T20:16:18;6.00;;;4.10;;
26838;SDS011;40088;51.214;6.786;2023-04-06T20:26:18;7.65;;;5.03;;
26838;SDS011;40088;51.214;6.786;2023-04-06T20:36:18;9.10;;;5.80;;
26838;SDS011;40088;51.214;6.786;2023-04-06T20:46:19;7.63;;;6.07;;
26838;SDS011;40088;51.214;6.786;2023-04-06T20:56:19;6.25;;;5.05;;
26838;SDS011;40088;51.214;6.786;2023-04-06T21:06:20;9.05;;;6.75;;
26838;SDS011;40088;51.214;6.786;2023-04-06T21:16:21;8.23;;;6.07;;
26838;SDS011;40088;51.214;6.786;2023-04-06T21:26:21;8.43;;;5.78;;
26838;SDS011;40088;51.214;6.786;2023-04-06T21:36:21;6.53;;;4.68;;
26838;SDS011;40088;51.214;6.786;2023-04-06T21:46:21;7.03;;;5.20;;
26838;SDS011;40088;51.214;6.786;2023-04-06T21:56:23;9.60;;;8.10;;
26838;SDS011;40088;51.214;6.786;2023-04-06T22:06:24;7.77;;;5.57;;
26838;SDS011;40088;51.214;6.786;2023-04-06T22:16:25;4.95;;;3.40;;
26838;SDS011;40088;51.214;6.786;2023-04-06T22:26:25;6.88;;;4.25;;
26838;SDS011;40088;51.214;6.786;2023-04-06T22:36:26;4.25;;;3.42;;
26838;SDS011;40088;51.214;6.786;2023-04-06T22:46:26;10.00;;;7.35;;
26838;SDS011;40088;51.214;6.786;2023-04-06T22:56:26;4.50;;;3.85;;
26838;SDS011;40088;51.214;6.786;2023-04-06T23:06:27;5.60;;;3.90;;
26838;SDS011;40088;51.214;6.786;2023-04-06T23:16:27;7.68;;;5.80;;
26838;SDS011;40088;51.214;6.786;2023-04-06T23:26:27;5.93;;;4.68;;
26838;SDS011;40088;51.214;6.786;2023-04-06T23:36:28;3.90;;;3.50;;
26838;SDS011;40088;51.214;6.786;2023-04-06T23:46:28;6.95;;;3.95;;
26838;SDS011;40088;51.214;6.786;2023-04-06T23:56:28;5.32;;;4.00;;
